createdAt,value
2018-08-17T00:00:19.159Z,19.84
2018-08-17T00:01:33.844Z,19.76
2018-08-17T00:02:33.865Z,19.78
2018-08-17T00:03:19.231Z,19.74
2018-08-17T00:04:19.256Z,19.87
2018-08-17T00:05:19.674Z,19.81
2018-08-17T00:06:19.047Z,19.8
2018-08-17T00:07:33.989Z,19.77
2018-08-17T00:09:19.378Z,19.77
2018-08-17T00:10:19.411Z,19.73
2018-08-17T00:11:19.428Z,19.76
2018-08-17T00:12:19.453Z,19.69
2018-08-17T00:13:34.140Z,19.62
2018-08-17T00:14:19.499Z,19.68
2018-08-17T00:15:19.529Z,19.62
2018-08-17T00:16:34.313Z,19.59
2018-08-17T00:17:19.579Z,19.71
2018-08-17T00:18:34.260Z,19.63
2018-08-17T00:19:19.625Z,19.56
2018-08-17T00:20:19.646Z,19.78
2018-08-17T00:21:19.415Z,19.66
2018-08-17T00:22:19.698Z,19.55
2018-08-17T00:23:34.396Z,19.62
2018-08-17T00:24:19.488Z,19.51
2018-08-17T00:25:19.768Z,19.56
2018-08-17T00:26:19.803Z,19.62
2018-08-17T00:27:19.563Z,19.58
2018-08-17T00:28:19.890Z,19.68
2018-08-17T00:29:19.879Z,19.61
2018-08-17T00:30:19.639Z,19.58
2018-08-17T00:31:19.934Z,19.58
2018-08-17T00:32:19.940Z,19.56
2018-08-17T00:33:19.966Z,19.62
2018-08-17T00:34:19.989Z,19.59
2018-08-17T00:35:20.023Z,19.58
2018-08-17T00:36:20.039Z,19.55
2018-08-17T00:37:20.070Z,19.55
2018-08-17T00:38:20.089Z,19.59
2018-08-17T00:39:34.772Z,19.55
2018-08-17T00:41:20.165Z,19.47
2018-08-17T00:42:19.934Z,19.47
2018-08-17T00:43:20.211Z,19.48
2018-08-17T00:44:20.238Z,19.54
2018-08-17T00:45:34.924Z,19.54
2018-08-17T00:46:20.287Z,19.44
2018-08-17T00:47:19.792Z,19.44
2018-08-17T00:49:35.047Z,19.39
2018-08-17T00:50:20.382Z,19.39
2018-08-17T00:51:20.419Z,19.41
2018-08-17T00:52:20.429Z,19.33
2018-08-17T00:53:20.198Z,19.33
2018-08-17T00:54:35.142Z,19.41
2018-08-17T00:55:20.504Z,19.4
2018-08-17T00:57:20.038Z,19.44
2018-08-17T00:58:20.577Z,19.29
2018-08-17T00:59:20.627Z,19.33
2018-08-17T01:00:20.626Z,19.33
2018-08-17T01:01:20.646Z,19.28
2018-08-17T01:02:20.679Z,19.11
2018-08-17T01:03:20.448Z,19.18
2018-08-17T01:04:20.724Z,19.18
2018-08-17T01:05:20.752Z,19.21
2018-08-17T01:06:20.773Z,19.21
2018-08-17T01:07:20.537Z,19.08
2018-08-17T01:08:20.829Z,19.13
2018-08-17T01:09:20.585Z,19.21
2018-08-17T01:10:20.869Z,19.08
2018-08-17T01:11:20.895Z,19.18
2018-08-17T01:12:20.929Z,19.11
2018-08-17T01:13:20.943Z,19.14
2018-08-17T01:15:20.989Z,19.14
2018-08-17T01:16:21.017Z,19.07
2018-08-17T01:17:20.787Z,19.02
2018-08-17T01:18:21.065Z,19.14
2018-08-17T01:19:21.084Z,19.04
2018-08-17T01:20:21.115Z,19.04
2018-08-17T01:21:21.140Z,18.92
2018-08-17T01:22:21.169Z,19
2018-08-17T01:23:21.183Z,19
2018-08-17T01:25:21.233Z,18.98
2018-08-17T01:26:35.917Z,19.04
2018-08-17T01:27:21.287Z,19.07
2018-08-17T01:28:21.314Z,19.1
2018-08-17T01:29:21.332Z,19.02
2018-08-17T01:30:21.351Z,19.06
2018-08-17T01:31:21.377Z,19.04
2018-08-17T01:32:21.402Z,19
2018-08-17T01:33:21.435Z,18.9
2018-08-17T01:34:21.192Z,18.81
2018-08-17T01:35:21.480Z,18.84
2018-08-17T01:36:21.238Z,18.9
2018-08-17T01:37:21.524Z,18.85
2018-08-17T01:38:21.550Z,18.82
2018-08-17T01:39:21.315Z,18.78
2018-08-17T01:40:21.597Z,18.72
2018-08-17T01:41:21.622Z,18.67
2018-08-17T01:42:36.047Z,18.7
2018-08-17T01:43:21.666Z,18.7
2018-08-17T01:44:21.691Z,18.66
2018-08-17T01:45:21.457Z,18.8
2018-08-17T01:46:21.482Z,18.73
2018-08-17T01:47:21.764Z,18.73
2018-08-17T01:48:21.275Z,18.72
2018-08-17T01:49:21.811Z,18.7
2018-08-17T01:50:36.498Z,18.66
2018-08-17T01:51:36.521Z,18.63
2018-08-17T01:52:21.883Z,18.65
2018-08-17T01:53:21.907Z,18.72
2018-08-17T01:54:21.932Z,18.62
2018-08-17T01:55:21.956Z,18.62
2018-08-17T01:56:21.982Z,18.62
2018-08-17T01:57:22.002Z,18.62
2018-08-17T01:58:36.687Z,18.54
2018-08-17T02:00:22.080Z,18.57
2018-08-17T02:01:22.096Z,18.58
2018-08-17T02:02:21.871Z,18.6
2018-08-17T02:03:21.892Z,18.63
2018-08-17T02:04:22.196Z,18.6
2018-08-17T02:05:22.198Z,18.6
2018-08-17T02:06:22.225Z,18.62
2018-08-17T02:07:22.246Z,18.62
2018-08-17T02:08:22.274Z,18.6
2018-08-17T02:09:22.295Z,18.57
2018-08-17T02:10:22.323Z,18.6
2018-08-17T02:11:22.346Z,18.67
2018-08-17T02:12:22.369Z,18.62
2018-08-17T02:13:22.142Z,18.62
2018-08-17T02:14:37.131Z,18.57
2018-08-17T02:15:22.438Z,18.6
2018-08-17T02:16:22.464Z,18.62
2018-08-17T02:17:22.486Z,18.55
2018-08-17T02:18:22.508Z,18.58
2018-08-17T02:19:22.534Z,18.58
2018-08-17T02:20:22.297Z,18.54
2018-08-17T02:21:22.325Z,18.48
2018-08-17T02:22:22.605Z,18.47
2018-08-17T02:23:22.372Z,18.36
2018-08-17T02:24:22.745Z,18.47
2018-08-17T02:25:22.678Z,18.44
2018-08-17T02:26:22.703Z,18.51
2018-08-17T02:27:22.729Z,18.44
2018-08-17T02:28:22.751Z,18.33
2018-08-17T02:29:37.438Z,18.41
2018-08-17T02:30:22.804Z,18.42
2018-08-17T02:31:22.824Z,18.41
2018-08-17T02:32:22.858Z,18.3
2018-08-17T02:33:22.885Z,18.45
2018-08-17T02:35:22.927Z,18.32
2018-08-17T02:36:22.959Z,18.37
2018-08-17T02:37:22.712Z,18.3
2018-08-17T02:38:22.989Z,18.39
2018-08-17T02:39:23.015Z,18.3
2018-08-17T02:40:23.038Z,18.32
2018-08-17T02:41:23.068Z,18.26
2018-08-17T02:42:23.088Z,18.26
2018-08-17T02:43:23.111Z,18.3
2018-08-17T02:44:23.133Z,18.32
2018-08-17T02:45:23.159Z,18.26
2018-08-17T02:46:23.193Z,18.21
2018-08-17T02:47:23.321Z,18.21
2018-08-17T02:48:22.976Z,18.15
2018-08-17T02:49:23.252Z,18.07
2018-08-17T02:50:23.026Z,18.11
2018-08-17T02:51:23.305Z,18.1
2018-08-17T02:52:23.327Z,18.12
2018-08-17T02:53:23.364Z,18.1
2018-08-17T02:54:23.404Z,18.12
2018-08-17T02:55:23.397Z,18.11
2018-08-17T02:56:23.433Z,18.15
2018-08-17T02:57:23.448Z,18.14
2018-08-17T02:59:23.507Z,18.1
2018-08-17T03:00:23.700Z,18.08
2018-08-17T03:01:38.219Z,18
2018-08-17T03:02:23.573Z,18.02
2018-08-17T03:03:23.591Z,17.97
2018-08-17T03:04:23.616Z,17.95
2018-08-17T03:05:23.639Z,17.97
2018-08-17T03:06:23.665Z,18.08
2018-08-17T03:07:23.685Z,17.93
2018-08-17T03:08:23.709Z,17.93
2018-08-17T03:09:23.729Z,17.93
2018-08-17T03:10:38.418Z,17.93
2018-08-17T03:11:23.518Z,17.87
2018-08-17T03:12:23.807Z,17.82
2018-08-17T03:13:23.573Z,17.84
2018-08-17T03:14:23.851Z,17.9
2018-08-17T03:15:23.618Z,17.9
2018-08-17T03:17:38.591Z,17.86
2018-08-17T03:18:23.689Z,17.79
2018-08-17T03:19:23.974Z,17.74
2018-08-17T03:20:23.997Z,17.79
2018-08-17T03:21:24.116Z,17.79
2018-08-17T03:22:38.706Z,17.79
2018-08-17T03:23:24.080Z,17.81
2018-08-17T03:24:23.830Z,17.78
2018-08-17T03:25:24.113Z,17.86
2018-08-17T03:26:38.798Z,17.87
2018-08-17T03:27:24.160Z,17.84
2018-08-17T03:28:24.194Z,17.84
2018-08-17T03:29:24.209Z,17.77
2018-08-17T03:30:24.253Z,17.84
2018-08-17T03:31:24.262Z,17.7
2018-08-17T03:32:24.279Z,17.64
2018-08-17T03:33:38.962Z,17.68
2018-08-17T03:34:24.070Z,17.7
2018-08-17T03:35:24.092Z,17.77
2018-08-17T03:36:24.376Z,17.74
2018-08-17T03:37:24.531Z,17.7
2018-08-17T03:38:24.422Z,17.64
2018-08-17T03:39:24.447Z,17.64
2018-08-17T03:40:24.472Z,17.74
2018-08-17T03:41:24.496Z,17.7
2018-08-17T03:42:24.258Z,17.79
2018-08-17T03:44:24.574Z,17.66
2018-08-17T03:45:24.326Z,17.64
2018-08-17T03:46:24.611Z,17.63
2018-08-17T03:47:24.636Z,17.64
2018-08-17T03:48:24.667Z,17.56
2018-08-17T03:49:39.341Z,17.64
2018-08-17T03:50:24.705Z,17.66
2018-08-17T03:52:24.767Z,17.59
2018-08-17T03:53:24.776Z,17.62
2018-08-17T03:54:24.798Z,17.54
2018-08-17T03:55:24.308Z,17.68
2018-08-17T03:56:24.848Z,17.7
2018-08-17T03:57:24.874Z,17.7
2018-08-17T03:58:24.380Z,17.68
2018-08-17T03:59:39.580Z,17.7
2018-08-17T04:00:24.941Z,17.66
2018-08-17T04:01:24.965Z,17.7
2018-08-17T04:02:24.987Z,17.58
2018-08-17T04:03:25.018Z,17.66
2018-08-17T04:04:39.709Z,17.64
2018-08-17T04:05:25.069Z,17.59
2018-08-17T04:06:24.828Z,17.55
2018-08-17T04:07:25.112Z,17.66
2018-08-17T04:09:39.822Z,17.71
2018-08-17T04:10:25.191Z,17.66
2018-08-17T04:11:24.944Z,17.64
2018-08-17T04:12:25.226Z,17.7
2018-08-17T04:13:25.258Z,17.68
2018-08-17T04:14:25.282Z,17.64
2018-08-17T04:15:25.414Z,17.74
2018-08-17T04:16:25.066Z,17.68
2018-08-17T04:17:25.349Z,17.66
2018-08-17T04:18:25.380Z,17.64
2018-08-17T04:19:25.391Z,17.72
2018-08-17T04:20:25.413Z,17.59
2018-08-17T04:21:25.440Z,17.62
2018-08-17T04:22:25.560Z,17.63
2018-08-17T04:23:25.585Z,17.78
2018-08-17T04:24:25.520Z,17.84
2018-08-17T04:26:25.561Z,17.78
2018-08-17T04:27:25.330Z,17.81
2018-08-17T04:28:25.604Z,17.81
2018-08-17T04:29:25.631Z,17.79
2018-08-17T04:30:40.316Z,17.9
2018-08-17T04:31:25.728Z,17.9
2018-08-17T04:32:25.702Z,17.95
2018-08-17T04:33:25.723Z,18.05
2018-08-17T04:34:25.753Z,18.02
2018-08-17T04:35:25.957Z,18.05
2018-08-17T04:36:40.457Z,18.07
2018-08-17T04:37:25.821Z,18.1
2018-08-17T04:38:25.590Z,18.14
2018-08-17T04:39:25.871Z,18.1
2018-08-17T04:40:25.890Z,18.1
2018-08-17T04:41:25.915Z,18.17
2018-08-17T04:42:25.681Z,18.18
2018-08-17T04:43:25.705Z,18.27
2018-08-17T04:44:25.984Z,18.35
2018-08-17T04:45:25.495Z,18.39
2018-08-17T04:46:26.030Z,18.36
2018-08-17T04:47:25.802Z,18.36
2018-08-17T04:48:26.080Z,18.44
2018-08-17T04:49:26.450Z,18.54
2018-08-17T04:50:25.872Z,18.57
2018-08-17T04:51:25.897Z,18.52
2018-08-17T04:52:40.836Z,18.7
2018-08-17T04:53:26.207Z,18.72
2018-08-17T04:55:25.988Z,19.62
2018-08-17T04:56:26.272Z,20.23
2018-08-17T04:57:40.960Z,20.97
2018-08-17T04:58:26.323Z,21.32
2018-08-17T04:59:26.085Z,21.75
2018-08-17T05:00:26.376Z,22.25
2018-08-17T05:01:26.135Z,22.67
2018-08-17T05:02:26.425Z,22.97
2018-08-17T05:03:26.392Z,23.32
2018-08-17T05:05:26.493Z,24.1
2018-08-17T05:06:26.520Z,24.53
2018-08-17T05:07:26.553Z,24.88
2018-08-17T05:09:26.601Z,25.14
2018-08-17T05:10:26.368Z,25.38
2018-08-17T05:11:26.394Z,25.45
2018-08-17T05:12:26.682Z,25.73
2018-08-17T05:13:26.706Z,25.82
2018-08-17T05:14:26.734Z,26.05
2018-08-17T05:15:26.509Z,26.32
2018-08-17T05:16:26.787Z,26.43
2018-08-17T05:17:26.563Z,26.69
2018-08-17T05:18:26.850Z,26.75
2018-08-17T05:19:26.872Z,26.48
2018-08-17T05:20:26.901Z,26.82
2018-08-17T05:21:27.063Z,27.21
2018-08-17T05:22:26.958Z,27.37
2018-08-17T05:23:26.961Z,27.49
2018-08-17T05:24:41.676Z,27.6
2018-08-17T05:25:27.049Z,27.7
2018-08-17T05:26:26.823Z,27.96
2018-08-17T05:27:26.847Z,27.81
2018-08-17T05:28:27.134Z,27.85
2018-08-17T05:29:27.173Z,27.69
2018-08-17T05:30:27.197Z,27.7
2018-08-17T05:31:27.225Z,27.93
2018-08-17T05:32:41.918Z,27.65
2018-08-17T05:33:27.287Z,27.65
2018-08-17T05:34:27.061Z,27.87
2018-08-17T05:35:27.347Z,28.22
2018-08-17T05:36:27.387Z,28.56
2018-08-17T05:37:27.406Z,28.46
2018-08-17T05:38:27.188Z,28.64
2018-08-17T05:39:42.143Z,28.96
2018-08-17T05:40:27.507Z,28.83
2018-08-17T05:41:27.545Z,29.27
2018-08-17T05:42:27.565Z,29.36
2018-08-17T05:43:27.596Z,29.31
2018-08-17T05:44:27.628Z,29.42
2018-08-17T05:45:27.661Z,29.53
2018-08-17T05:46:27.693Z,29.24
2018-08-17T05:47:27.724Z,29.28
2018-08-17T05:48:27.755Z,29.46
2018-08-17T05:49:42.195Z,29.64
2018-08-17T05:50:42.482Z,29.89
2018-08-17T05:51:27.857Z,29.82
2018-08-17T05:52:27.887Z,29.82
2018-08-17T05:53:27.922Z,29.61
2018-08-17T05:54:27.698Z,29.89
2018-08-17T05:56:28.017Z,30.55
2018-08-17T05:57:27.791Z,30.46
2018-08-17T05:58:27.830Z,30.76
2018-08-17T05:59:28.116Z,30.76
2018-08-17T06:00:28.157Z,31.07
2018-08-17T06:01:28.189Z,30.91
2018-08-17T06:02:42.911Z,30.82
2018-08-17T06:03:28.251Z,30.7
2018-08-17T06:04:28.290Z,30.99
2018-08-17T06:05:42.722Z,31.34
2018-08-17T06:06:28.353Z,30.62
2018-08-17T06:07:28.382Z,30.23
2018-08-17T06:08:28.414Z,30.29
2018-08-17T06:09:28.458Z,30.38
2018-08-17T06:10:28.486Z,30.64
2018-08-17T06:13:28.593Z,30.62
2018-08-17T06:14:28.625Z,30.76
2018-08-17T06:15:28.656Z,30.77
2018-08-17T06:17:28.759Z,31.14
2018-08-17T06:18:28.499Z,31.26
2018-08-17T06:19:28.603Z,31.48
2018-08-17T06:20:28.829Z,31.34
2018-08-17T06:21:28.860Z,31.36
2018-08-17T06:22:28.901Z,31.5
2018-08-17T06:23:28.939Z,31.29
2018-08-17T06:24:28.451Z,31.38
2018-08-17T06:25:29.003Z,31.46
2018-08-17T06:26:29.047Z,31.56
2018-08-17T06:27:43.482Z,31.78
2018-08-17T06:28:29.208Z,31.96
2018-08-17T06:29:28.883Z,32.13
2018-08-17T06:30:28.919Z,32.33
2018-08-17T06:31:44.061Z,32.52
2018-08-17T06:32:28.985Z,32.82
2018-08-17T06:33:29.282Z,32.7
2018-08-17T06:34:29.318Z,32.3
2018-08-17T06:35:44.018Z,32.21
2018-08-17T06:36:29.135Z,31.91
2018-08-17T06:37:29.730Z,31.85
2018-08-17T06:38:29.207Z,31.86
2018-08-17T06:40:44.191Z,31.93
2018-08-17T06:41:29.570Z,31.92
2018-08-17T06:42:29.371Z,31.84
2018-08-17T06:44:29.414Z,32.35
2018-08-17T06:45:29.453Z,32.37
2018-08-17T06:46:29.745Z,32.81
2018-08-17T06:47:29.779Z,32.81
2018-08-17T06:49:29.865Z,32.93
2018-08-17T06:50:29.659Z,33.19
2018-08-17T06:51:29.931Z,33.01
2018-08-17T06:52:29.702Z,33.01
2018-08-17T06:53:30.001Z,32.93
2018-08-17T06:54:30.032Z,33.29
2018-08-17T06:55:30.082Z,33.49
2018-08-17T06:56:30.103Z,34.06
2018-08-17T06:57:30.142Z,34.28
2018-08-17T06:58:30.173Z,34.7
2018-08-17T06:59:44.889Z,35.03
2018-08-17T07:00:30.260Z,34.66
2018-08-17T07:02:30.485Z,35.1
2018-08-17T07:03:30.361Z,35.06
2018-08-17T07:04:30.393Z,34.96
2018-08-17T07:06:30.212Z,35.22
2018-08-17T07:08:30.539Z,35.07
2018-08-17T07:09:30.978Z,35.14
2018-08-17T07:10:30.619Z,35.4
2018-08-17T07:11:30.405Z,35.15
2018-08-17T07:12:30.434Z,35.11
2018-08-17T07:13:30.469Z,35.15
2018-08-17T07:14:45.431Z,35.22
2018-08-17T07:15:30.799Z,34.94
2018-08-17T07:16:30.919Z,34.97
2018-08-17T07:17:30.882Z,34.84
2018-08-17T07:19:30.953Z,34.85
2018-08-17T07:20:30.992Z,34.88
2018-08-17T07:21:30.938Z,34.78
2018-08-17T07:22:31.072Z,34.77
2018-08-17T07:24:31.140Z,34.92
2018-08-17T07:25:31.178Z,34.88
2018-08-17T07:26:31.216Z,34.88
2018-08-17T07:27:31.248Z,35.09
2018-08-17T07:28:31.031Z,34.64
2018-08-17T07:29:31.337Z,34.69
2018-08-17T07:30:31.370Z,34.25
2018-08-17T07:31:31.140Z,33.53
2018-08-17T07:32:31.436Z,33.57
2018-08-17T07:33:31.219Z,33.97
2018-08-17T07:34:31.521Z,34.72
2018-08-17T07:35:31.307Z,34.65
2018-08-17T07:36:31.334Z,34.82
2018-08-17T07:37:31.364Z,34.97
2018-08-17T07:38:31.410Z,34.96
2018-08-17T07:39:31.437Z,35.06
2018-08-17T07:40:31.732Z,34.96
2018-08-17T07:41:31.880Z,34.78
2018-08-17T07:42:31.813Z,34.43
2018-08-17T07:43:31.591Z,34.02
2018-08-17T07:44:31.890Z,34
2018-08-17T07:46:46.617Z,34.61
2018-08-17T07:47:32.001Z,34.88
2018-08-17T07:49:32.073Z,34.85
2018-08-17T07:51:31.883Z,35.21
2018-08-17T07:52:32.181Z,35.4
2018-08-17T07:53:32.220Z,35.09
2018-08-17T07:54:32.256Z,34.8
2018-08-17T07:55:32.037Z,34.77
2018-08-17T07:56:32.334Z,34.69
2018-08-17T07:57:32.371Z,34.53
2018-08-17T07:58:32.400Z,34.64
2018-08-17T07:59:32.440Z,34.69
2018-08-17T08:00:32.484Z,34.75
2018-08-17T08:01:32.254Z,34.65
2018-08-17T08:02:47.214Z,35.23
2018-08-17T08:03:32.331Z,35.45
2018-08-17T08:04:32.632Z,36.12
2018-08-17T08:05:32.679Z,36.03
2018-08-17T08:06:32.445Z,36.32
2018-08-17T08:07:32.747Z,36.69
2018-08-17T08:08:32.771Z,36.72
2018-08-17T08:09:32.810Z,36.88
2018-08-17T08:10:32.854Z,36.9
2018-08-17T08:11:32.891Z,37.34
2018-08-17T08:12:32.931Z,37.32
2018-08-17T08:14:32.735Z,36.99
2018-08-17T08:15:33.038Z,37.06
2018-08-17T08:16:32.812Z,36.85
2018-08-17T08:17:32.847Z,36.49
2018-08-17T08:18:47.810Z,36.39
2018-08-17T08:19:32.922Z,35.8
2018-08-17T08:20:33.228Z,36.19
2018-08-17T08:21:33.003Z,36.66
2018-08-17T08:22:33.031Z,36.54
2018-08-17T08:24:33.114Z,36.46
2018-08-17T08:25:33.145Z,36.12
2018-08-17T08:26:33.186Z,35.9
2018-08-17T08:27:48.140Z,35.96
2018-08-17T08:28:48.176Z,35.8
2018-08-17T08:29:33.553Z,36.01
2018-08-17T08:30:33.586Z,36.23
2018-08-17T08:31:33.369Z,35.81
2018-08-17T08:32:48.511Z,35.44
2018-08-17T08:34:48.141Z,36.17
2018-08-17T08:35:33.770Z,35.93
2018-08-17T08:38:33.884Z,35.9
2018-08-17T08:39:33.920Z,36.01
2018-08-17T08:40:33.703Z,36.31
2018-08-17T08:41:48.404Z,36.15
2018-08-17T08:42:33.770Z,36.69
2018-08-17T08:43:33.910Z,36.76
2018-08-17T08:44:33.850Z,37.18
2018-08-17T08:45:34.117Z,36.91
2018-08-17T08:46:33.921Z,37.32
2018-08-17T08:47:34.214Z,37.46
2018-08-17T08:48:33.992Z,37.51
2018-08-17T08:49:48.694Z,37.47
2018-08-17T08:50:34.324Z,37.63
2018-08-17T08:52:34.392Z,37.46
2018-08-17T08:53:34.175Z,37.46
2018-08-17T08:54:34.468Z,37.69
2018-08-17T08:55:34.504Z,37.62
2018-08-17T08:56:34.565Z,37.28
2018-08-17T08:57:34.585Z,37.34
2018-08-17T08:58:34.366Z,37.6
2018-08-17T08:59:34.653Z,37.43
2018-08-17T09:00:34.694Z,37.31
2018-08-17T09:01:34.530Z,37.5
2018-08-17T09:02:34.762Z,37.29
2018-08-17T09:03:34.801Z,37.18
2018-08-17T09:05:34.881Z,36.5
2018-08-17T09:06:34.920Z,36.91
2018-08-17T09:08:34.990Z,36.72
2018-08-17T09:09:35.026Z,36.59
2018-08-17T09:10:35.055Z,36.85
2018-08-17T09:11:35.091Z,37.1
2018-08-17T09:12:35.128Z,37.17
2018-08-17T09:13:35.348Z,36.01
2018-08-17T09:14:35.200Z,36.09
2018-08-17T09:15:35.237Z,36.66
2018-08-17T09:16:35.014Z,37.22
2018-08-17T09:17:35.308Z,37.47
2018-08-17T09:18:35.344Z,37.74
2018-08-17T09:19:35.401Z,38.04
2018-08-17T09:20:35.564Z,37.96
2018-08-17T09:21:50.118Z,38.01
2018-08-17T09:23:35.529Z,38.37
2018-08-17T09:25:35.594Z,38.53
2018-08-17T09:26:35.636Z,38.63
2018-08-17T09:27:35.668Z,38.76
2018-08-17T09:28:35.703Z,39.1
2018-08-17T09:29:50.411Z,38.86
2018-08-17T09:30:35.785Z,38.78
2018-08-17T09:31:50.479Z,38.52
2018-08-17T09:32:50.511Z,38.72
2018-08-17T09:33:35.936Z,38.68
2018-08-17T09:34:35.933Z,38.81
2018-08-17T09:35:35.960Z,39.03
2018-08-17T09:36:35.996Z,39.47
2018-08-17T09:37:50.439Z,39.94
2018-08-17T09:38:36.068Z,39.88
2018-08-17T09:39:35.882Z,39.21
2018-08-17T09:40:36.145Z,38.75
2018-08-17T09:41:36.239Z,38.78
2018-08-17T09:42:36.210Z,38.59
2018-08-17T09:43:50.915Z,38.4
2018-08-17T09:44:36.284Z,38.34
2018-08-17T09:45:36.062Z,38.66
2018-08-17T09:46:36.364Z,38.79
2018-08-17T09:47:36.400Z,38.86
2018-08-17T09:48:36.432Z,38.79
2018-08-17T09:49:36.209Z,38.87
2018-08-17T09:50:36.256Z,39.7
2018-08-17T09:51:36.280Z,39.38
2018-08-17T09:52:36.058Z,39.41
2018-08-17T09:53:51.272Z,39.38
2018-08-17T09:54:36.387Z,39.66
2018-08-17T09:55:36.682Z,39.72
2018-08-17T09:56:36.727Z,39.06
2018-08-17T09:57:37.002Z,38.83
2018-08-17T09:58:36.792Z,38.49
2018-08-17T09:59:36.822Z,38.4
2018-08-17T10:00:51.533Z,38.53
2018-08-17T10:01:36.908Z,38.65
2018-08-17T10:02:36.674Z,38.87
2018-08-17T10:03:36.996Z,38.81
2018-08-17T10:04:37.018Z,38.96
2018-08-17T10:05:37.084Z,38.96
2018-08-17T10:06:36.815Z,39.1
2018-08-17T10:07:36.853Z,38.79
2018-08-17T10:08:36.886Z,38.83
2018-08-17T10:09:51.844Z,38.68
2018-08-17T10:11:37.251Z,38.38
2018-08-17T10:12:37.285Z,38.25
2018-08-17T10:13:37.329Z,38.37
2018-08-17T10:14:37.360Z,38.34
2018-08-17T10:15:37.397Z,38.49
2018-08-17T10:16:37.439Z,38.52
2018-08-17T10:17:37.209Z,38.19
2018-08-17T10:18:37.499Z,38.41
2018-08-17T10:19:37.532Z,38.71
2018-08-17T10:20:37.591Z,38.61
2018-08-17T10:21:39.038Z,38.76
2018-08-17T10:22:37.653Z,38.81
2018-08-17T10:23:37.674Z,38.86
2018-08-17T10:24:52.375Z,38.75
2018-08-17T10:25:37.747Z,38.6
2018-08-17T10:26:37.780Z,38.56
2018-08-17T10:27:37.560Z,38.65
2018-08-17T10:28:37.853Z,38.23
2018-08-17T10:29:37.886Z,38.09
2018-08-17T10:30:37.923Z,37.85
2018-08-17T10:31:37.962Z,37.56
2018-08-17T10:32:37.731Z,37.44
2018-08-17T10:33:38.022Z,37.31
2018-08-17T10:34:38.066Z,37.36
2018-08-17T10:35:38.092Z,37.32
2018-08-17T10:36:38.236Z,36.99
2018-08-17T10:37:38.163Z,36.64
2018-08-17T10:38:38.198Z,36.15
2018-08-17T10:39:38.236Z,35.84
2018-08-17T10:40:38.347Z,35.16
2018-08-17T10:41:38.313Z,35.23
2018-08-17T10:42:38.337Z,35.31
2018-08-17T10:44:38.406Z,35.6
2018-08-17T10:45:38.186Z,35.52
2018-08-17T10:46:38.474Z,35.56
2018-08-17T10:47:37.993Z,35.81
2018-08-17T10:48:38.674Z,36.05
2018-08-17T10:49:38.601Z,36.07
2018-08-17T10:50:38.621Z,36.15
2018-08-17T10:51:38.644Z,36.32
2018-08-17T10:52:38.162Z,36.43
2018-08-17T10:53:38.718Z,36.59
2018-08-17T10:54:38.231Z,36.5
2018-08-17T10:55:53.188Z,36.37
2018-08-17T10:56:53.321Z,36.56
2018-08-17T10:57:39.164Z,36.51
2018-08-17T10:58:38.628Z,36.49
2018-08-17T10:59:38.660Z,36.32
2018-08-17T11:00:38.699Z,36.32
2018-08-17T11:01:53.654Z,36.44
2018-08-17T11:02:39.015Z,36.62
2018-08-17T11:03:39.053Z,36.62
2018-08-17T11:04:53.757Z,36.38
2018-08-17T11:05:53.780Z,36.41
2018-08-17T11:06:39.152Z,36.38
2018-08-17T11:07:39.189Z,36.46
2018-08-17T11:08:39.214Z,36.39
2018-08-17T11:09:38.737Z,36.29
2018-08-17T11:10:39.294Z,36.29
2018-08-17T11:11:39.316Z,36.28
2018-08-17T11:12:54.016Z,36.41
2018-08-17T11:13:39.666Z,36.39
2018-08-17T11:14:39.160Z,36.56
2018-08-17T11:15:39.459Z,36.51
2018-08-17T11:16:39.485Z,36.56
2018-08-17T11:17:39.529Z,36.65
2018-08-17T11:18:39.575Z,36.39
2018-08-17T11:19:39.585Z,36.34
2018-08-17T11:20:39.368Z,36.03
2018-08-17T11:21:54.313Z,35.74
2018-08-17T11:22:39.684Z,35.66
2018-08-17T11:23:39.463Z,35.94
2018-08-17T11:24:39.494Z,36.19
2018-08-17T11:25:39.803Z,36.17
2018-08-17T11:26:39.823Z,36.34
2018-08-17T11:27:39.591Z,36.49
2018-08-17T11:28:54.290Z,36.57
2018-08-17T11:29:39.670Z,36.57
2018-08-17T11:31:39.984Z,36.53
2018-08-17T11:32:40.013Z,36.32
2018-08-17T11:33:40.049Z,35.93
2018-08-17T11:34:39.828Z,35.53
2018-08-17T11:35:39.871Z,35.44
2018-08-17T11:36:39.888Z,35.44
2018-08-17T11:37:40.182Z,35.26
2018-08-17T11:38:40.225Z,35.23
2018-08-17T11:39:54.908Z,35.26
2018-08-17T11:40:40.025Z,35.21
2018-08-17T11:41:40.503Z,35.09
2018-08-17T11:42:40.351Z,34.77
2018-08-17T11:44:55.072Z,34.92
2018-08-17T11:45:40.183Z,35.03
2018-08-17T11:46:40.484Z,35.25
2018-08-17T11:47:40.518Z,35.48
2018-08-17T11:48:40.558Z,35.82
2018-08-17T11:49:40.583Z,35.94
2018-08-17T11:50:40.606Z,35.96
2018-08-17T11:51:40.125Z,36.08
2018-08-17T11:52:40.828Z,36.15
2018-08-17T11:53:41.282Z,36.13
2018-08-17T11:54:55.399Z,35.99
2018-08-17T11:56:40.803Z,36.13
2018-08-17T11:57:40.574Z,36.19
2018-08-17T11:58:40.610Z,35.93
2018-08-17T11:59:55.568Z,35.9
2018-08-17T12:00:40.945Z,35.71
2018-08-17T12:02:41.006Z,36.12
2018-08-17T12:03:41.031Z,36.29
2018-08-17T12:04:41.061Z,36.62
2018-08-17T12:05:41.100Z,36.62
2018-08-17T12:06:41.128Z,36.64
2018-08-17T12:07:41.165Z,36.75
2018-08-17T12:08:41.412Z,36.87
2018-08-17T12:09:41.226Z,36.87
2018-08-17T12:10:41.271Z,36.72
2018-08-17T12:11:41.288Z,36.39
2018-08-17T12:12:41.063Z,36.39
2018-08-17T12:13:41.108Z,36.41
2018-08-17T12:14:41.394Z,36.09
2018-08-17T12:15:41.521Z,36
2018-08-17T12:16:41.196Z,35.87
2018-08-17T12:17:41.227Z,35.85
2018-08-17T12:18:41.625Z,35.7
2018-08-17T12:19:41.551Z,35.68
2018-08-17T12:20:41.583Z,35.85
2018-08-17T12:21:41.359Z,35.71
2018-08-17T12:22:56.362Z,35.45
2018-08-17T12:23:41.684Z,35.38
2018-08-17T12:24:41.804Z,35.31
2018-08-17T12:25:56.152Z,35.31
2018-08-17T12:26:41.522Z,35.44
2018-08-17T12:27:41.550Z,35.31
2018-08-17T12:28:41.845Z,35.44
2018-08-17T12:29:41.876Z,35.23
2018-08-17T12:30:41.650Z,35.23
2018-08-17T12:32:41.978Z,35.28
2018-08-17T12:33:42.008Z,35.15
2018-08-17T12:34:42.039Z,35.07
2018-08-17T12:35:42.071Z,35.22
2018-08-17T12:36:42.108Z,35.19
2018-08-17T12:37:42.139Z,35.14
2018-08-17T12:38:42.163Z,35.29
2018-08-17T12:39:42.198Z,35.31
2018-08-17T12:40:42.228Z,35.31
2018-08-17T12:41:56.926Z,34.97
2018-08-17T12:42:42.307Z,35
2018-08-17T12:43:42.327Z,34.88
2018-08-17T12:44:42.365Z,35.14
2018-08-17T12:45:42.406Z,35.21
2018-08-17T12:46:42.559Z,35.23
2018-08-17T12:47:56.860Z,35.26
2018-08-17T12:48:42.233Z,35.36
2018-08-17T12:49:42.001Z,35.55
2018-08-17T12:50:42.301Z,35.55
2018-08-17T12:51:42.589Z,35.59
2018-08-17T12:52:42.615Z,35.58
2018-08-17T12:53:42.648Z,35.81
2018-08-17T12:54:42.678Z,35.85
2018-08-17T12:55:42.458Z,35.87
2018-08-17T12:56:42.742Z,35.92
2018-08-17T12:57:42.521Z,35.87
2018-08-17T12:58:42.553Z,35.66
2018-08-17T12:59:42.853Z,35.84
2018-08-17T13:00:42.877Z,35.99
2018-08-17T13:01:42.648Z,36.17
2018-08-17T13:02:42.945Z,36.28
2018-08-17T13:03:57.631Z,36.34
2018-08-17T13:04:43.006Z,36.47
2018-08-17T13:05:43.092Z,36.39
2018-08-17T13:06:43.073Z,36.39
2018-08-17T13:07:42.853Z,36.41
2018-08-17T13:08:43.134Z,36.28
2018-08-17T13:09:43.166Z,36.22
2018-08-17T13:10:43.307Z,36.13
2018-08-17T13:11:57.894Z,36.2
2018-08-17T13:12:42.745Z,36.29
2018-08-17T13:13:43.293Z,36.19
2018-08-17T13:14:43.072Z,36.25
2018-08-17T13:15:43.363Z,36.29
2018-08-17T13:16:43.391Z,36.31
2018-08-17T13:17:43.420Z,36.22
2018-08-17T13:18:43.456Z,36.23
2018-08-17T13:19:58.151Z,36.29
2018-08-17T13:20:43.261Z,36.09
2018-08-17T13:21:43.560Z,36.08
2018-08-17T13:22:43.333Z,35.81
2018-08-17T13:23:43.622Z,35.31
2018-08-17T13:24:43.657Z,34.88
2018-08-17T13:26:43.710Z,34.64
2018-08-17T13:27:43.744Z,34.64
2018-08-17T13:28:43.777Z,34.7
2018-08-17T13:30:43.840Z,34.97
2018-08-17T13:31:43.876Z,35
2018-08-17T13:32:43.649Z,35.26
2018-08-17T13:33:43.683Z,35.26
2018-08-17T13:35:44.015Z,35.55
2018-08-17T13:36:44.092Z,35.68
2018-08-17T13:38:44.099Z,35.78
2018-08-17T13:39:44.139Z,35.43
2018-08-17T13:40:44.161Z,35.23
2018-08-17T13:41:44.197Z,35.21
2018-08-17T13:42:44.233Z,35.38
2018-08-17T13:43:44.259Z,35.52
2018-08-17T13:44:44.288Z,35.48
2018-08-17T13:45:44.349Z,35.53
2018-08-17T13:46:44.352Z,35.56
2018-08-17T13:47:44.124Z,35.53
2018-08-17T13:48:44.728Z,35.55